Hansonville, Virginia
Current Conditions -  °F | °C
As of 12:35 PM on Thursday 23 Oct 2014 (Local Time) from KVJI Reporting Station
Overcast Overcast  
Wind Chill: 50°   Ceiling: 2300
Heat Index: 50°   Visibility: 10mi
Dew Point: 39°   Wind: 5mph
Humidity: 66%   Direction: 50°NE
Pressure: 30.19"   Gusts: NA
Location:  36.85°N, 82.1249°W
Report Text: KVJI 231635Z AUTO 05004KT 10SM OVC023 10/04 A3019 RMK AO2 T01000040
Loading
Personal Weather Stations






























Interactive Weather Map
Tropical Storm Tracking
New forecast layout! Learn more

10-Day Weather Forecast

Advertisements
Track Severe Weather on mobile